sensor_id;sensor_type;location;lat;lon;timestamp;pressure;altitude;pressure_sealevel;temperature;humidity
16194;BME280;8204;53.582;10.080;2024-02-23T00:00:50;97647.81;;;12.23;100.00
16194;BME280;8204;53.582;10.080;2024-02-23T00:03:15;97681.00;;;12.12;100.00
16194;BME280;8204;53.582;10.080;2024-02-23T00:05:41;97655.97;;;12.05;100.00
16194;BME280;8204;53.582;10.080;2024-02-23T00:08:07;97634.63;;;12.18;100.00
16194;BME280;8204;53.582;10.080;2024-02-23T00:10:32;97651.47;;;12.22;100.00
16194;BME280;8204;53.582;10.080;2024-02-23T00:12:58;97653.19;;;12.33;100.00
16194;BME280;8204;53.582;10.080;2024-02-23T00:15:23;97664.22;;;12.35;100.00
16194;BME280;8204;53.582;10.080;2024-02-23T00:17:50;97667.84;;;12.29;100.00
16194;BME280;8204;53.582;10.080;2024-02-23T00:20:16;97691.66;;;12.22;100.00
16194;BME280;8204;53.582;10.080;2024-02-23T00:22:42;97686.44;;;12.06;100.00
16194;BME280;8204;53.582;10.080;2024-02-23T00:25:08;97684.13;;;12.09;100.00
16194;BME280;8204;53.582;10.080;2024-02-23T00:27:33;97701.56;;;11.99;100.00
16194;BME280;8204;53.582;10.080;2024-02-23T00:29:59;97687.69;;;12.03;100.00
16194;BME280;8204;53.582;10.080;2024-02-23T00:32:25;97653.34;;;12.05;100.00
16194;BME280;8204;53.582;10.080;2024-02-23T00:34:51;97704.03;;;11.89;100.00
16194;BME280;8204;53.582;10.080;2024-02-23T00:37:16;97674.22;;;11.78;100.00
16194;BME280;8204;53.582;10.080;2024-02-23T00:39:42;97692.59;;;11.62;100.00
16194;BME280;8204;53.582;10.080;2024-02-23T00:42:07;97694.81;;;11.70;100.00
16194;BME280;8204;53.582;10.080;2024-02-23T00:44:33;97699.09;;;11.76;100.00
16194;BME280;8204;53.582;10.080;2024-02-23T00:46:58;97699.66;;;11.62;100.00
16194;BME280;8204;53.582;10.080;2024-02-23T00:49:27;97715.72;;;11.65;100.00
16194;BME280;8204;53.582;10.080;2024-02-23T00:51:53;97730.91;;;11.63;100.00
16194;BME280;8204;53.582;10.080;2024-02-23T00:54:18;97752.81;;;11.57;100.00
16194;BME280;8204;53.582;10.080;2024-02-23T00:56:43;97766.44;;;11.43;100.00
16194;BME280;8204;53.582;10.080;2024-02-23T00:59:10;97752.31;;;11.16;100.00
16194;BME280;8204;53.582;10.080;2024-02-23T01:01:36;97653.31;;;10.74;100.00
16194;BME280;8204;53.582;10.080;2024-02-23T01:04:02;97642.22;;;10.16;100.00
16194;BME280;8204;53.582;10.080;2024-02-23T01:06:27;97514.00;;;9.65;100.00
16194;BME280;8204;53.582;10.080;2024-02-23T01:08:53;97498.72;;;9.57;100.00
16194;BME280;8204;53.582;10.080;2024-02-23T01:11:19;97481.13;;;9.42;100.00
16194;BME280;8204;53.582;10.080;2024-02-23T01:13:44;97491.72;;;9.24;100.00
16194;BME280;8204;53.582;10.080;2024-02-23T01:16:09;97486.59;;;9.29;100.00
16194;BME280;8204;53.582;10.080;2024-02-23T01:18:35;97520.91;;;9.09;100.00
16194;BME280;8204;53.582;10.080;2024-02-23T01:21:06;97516.44;;;9.33;100.00
16194;BME280;8204;53.582;10.080;2024-02-23T01:23:32;97523.97;;;9.18;100.00
16194;BME280;8204;53.582;10.080;2024-02-23T01:25:58;97549.28;;;9.17;100.00
16194;BME280;8204;53.582;10.080;2024-02-23T01:28:24;97587.56;;;9.12;100.00
16194;BME280;8204;53.582;10.080;2024-02-23T01:30:50;97571.09;;;9.11;100.00
16194;BME280;8204;53.582;10.080;2024-02-23T01:33:15;97580.53;;;9.24;100.00
16194;BME280;8204;53.582;10.080;2024-02-23T01:35:41;97606.75;;;9.29;100.00
16194;BME280;8204;53.582;10.080;2024-02-23T01:38:08;97625.84;;;9.29;100.00
16194;BME280;8204;53.582;10.080;2024-02-23T01:40:33;97651.75;;;9.31;100.00
16194;BME280;8204;53.582;10.080;2024-02-23T01:43:03;97675.91;;;9.15;100.00
16194;BME280;8204;53.582;10.080;2024-02-23T01:45:29;97685.03;;;9.24;100.00
16194;BME280;8204;53.582;10.080;2024-02-23T01:47:56;97703.19;;;9.19;100.00
16194;BME280;8204;53.582;10.080;2024-02-23T01:50:22;97720.44;;;9.20;100.00
16194;BME280;8204;53.582;10.080;2024-02-23T01:52:48;97728.97;;;9.27;100.00
16194;BME280;8204;53.582;10.080;2024-02-23T01:55:14;97740.25;;;9.27;100.00
16194;BME280;8204;53.582;10.080;2024-02-23T01:57:39;97768.53;;;9.30;100.00
16194;BME280;8204;53.582;10.080;2024-02-23T02:00:07;97810.78;;;9.27;100.00
16194;BME280;8204;53.582;10.080;2024-02-23T02:02:32;97820.78;;;9.30;100.00
16194;BME280;8204;53.582;10.080;2024-02-23T02:04:58;97841.59;;;9.37;100.00
16194;BME280;8204;53.582;10.080;2024-02-23T02:07:23;97862.22;;;9.27;100.00
16194;BME280;8204;53.582;10.080;2024-02-23T02:09:50;97885.31;;;9.30;100.00
16194;BME280;8204;53.582;10.080;2024-02-23T02:12:26;97913.59;;;9.15;100.00
16194;BME280;8204;53.582;10.080;2024-02-23T02:14:51;97939.72;;;9.15;100.00
16194;BME280;8204;53.582;10.080;2024-02-23T02:17:17;97953.16;;;9.18;100.00
16194;BME280;8204;53.582;10.080;2024-02-23T02:19:50;97957.28;;;9.08;100.00
16194;BME280;8204;53.582;10.080;2024-02-23T02:22:15;97961.63;;;9.14;100.00
16194;BME280;8204;53.582;10.080;2024-02-23T02:24:40;97972.25;;;9.19;100.00
16194;BME280;8204;53.582;10.080;2024-02-23T02:27:08;97972.03;;;9.20;100.00
16194;BME280;8204;53.582;10.080;2024-02-23T02:29:35;98000.66;;;9.09;100.00
16194;BME280;8204;53.582;10.080;2024-02-23T02:32:00;98001.28;;;8.86;100.00
16194;BME280;8204;53.582;10.080;2024-02-23T02:34:25;97974.81;;;9.01;100.00
16194;BME280;8204;53.582;10.080;2024-02-23T02:36:51;98001.94;;;9.00;100.00
16194;BME280;8204;53.582;10.080;2024-02-23T02:39:16;97994.84;;;9.07;100.00
16194;BME280;8204;53.582;10.080;2024-02-23T02:41:42;97999.06;;;9.08;100.00
16194;BME280;8204;53.582;10.080;2024-02-23T02:44:07;98014.59;;;9.03;100.00
16194;BME280;8204;53.582;10.080;2024-02-23T02:46:35;98035.38;;;8.91;100.00
16194;BME280;8204;53.582;10.080;2024-02-23T02:49:00;98048.38;;;8.73;100.00
16194;BME280;8204;53.582;10.080;2024-02-23T02:51:26;98050.66;;;8.88;100.00
16194;BME280;8204;53.582;10.080;2024-02-23T02:53:52;98085.59;;;8.93;100.00
16194;BME280;8204;53.582;10.080;2024-02-23T02:56:17;98078.63;;;8.81;100.00
16194;BME280;8204;53.582;10.080;2024-02-23T02:58:42;98081.94;;;8.70;100.00
16194;BME280;8204;53.582;10.080;2024-02-23T03:01:08;98098.97;;;8.79;100.00
16194;BME280;8204;53.582;10.080;2024-02-23T03:03:34;98104.72;;;8.57;100.00
16194;BME280;8204;53.582;10.080;2024-02-23T03:06:00;98108.97;;;8.51;100.00
16194;BME280;8204;53.582;10.080;2024-02-23T03:08:25;98123.84;;;8.44;100.00
16194;BME280;8204;53.582;10.080;2024-02-23T03:10:51;98113.56;;;8.49;100.00
16194;BME280;8204;53.582;10.080;2024-02-23T03:13:17;98126.47;;;8.38;100.00
16194;BME280;8204;53.582;10.080;2024-02-23T03:15:42;98144.50;;;8.46;100.00
16194;BME280;8204;53.582;10.080;2024-02-23T03:18:08;98147.56;;;8.36;100.00
16194;BME280;8204;53.582;10.080;2024-02-23T03:20:35;98134.53;;;8.36;100.00
16194;BME280;8204;53.582;10.080;2024-02-23T03:23:00;98164.38;;;8.47;100.00
16194;BME280;8204;53.582;10.080;2024-02-23T03:25:29;98152.22;;;8.34;100.00
16194;BME280;8204;53.582;10.080;2024-02-23T03:27:54;98156.22;;;8.37;100.00
16194;BME280;8204;53.582;10.080;2024-02-23T03:30:19;98178.25;;;8.41;100.00
16194;BME280;8204;53.582;10.080;2024-02-23T03:32:45;98178.81;;;8.49;100.00
16194;BME280;8204;53.582;10.080;2024-02-23T03:35:12;98187.91;;;8.40;100.00
16194;BME280;8204;53.582;10.080;2024-02-23T03:37:38;98225.59;;;8.51;100.00
16194;BME280;8204;53.582;10.080;2024-02-23T03:40:05;98221.41;;;8.43;100.00
16194;BME280;8204;53.582;10.080;2024-02-23T03:42:31;98263.19;;;8.37;100.00
16194;BME280;8204;53.582;10.080;2024-02-23T03:44:56;98227.69;;;8.16;100.00
16194;BME280;8204;53.582;10.080;2024-02-23T03:47:22;98218.66;;;8.12;100.00
16194;BME280;8204;53.582;10.080;2024-02-23T03:49:47;98213.44;;;8.12;100.00
16194;BME280;8204;53.582;10.080;2024-02-23T03:52:13;98211.25;;;8.16;100.00
16194;BME280;8204;53.582;10.080;2024-02-23T03:54:38;98236.91;;;8.25;100.00
16194;BME280;8204;53.582;10.080;2024-02-23T03:57:04;98238.09;;;8.36;100.00
16194;BME280;8204;53.582;10.080;2024-02-23T03:59:30;98245.53;;;8.26;100.00
16194;BME280;8204;53.582;10.080;2024-02-23T04:01:56;98255.78;;;8.21;100.00
16194;BME280;8204;53.582;10.080;2024-02-23T04:04:21;98253.56;;;8.24;100.00
16194;BME280;8204;53.582;10.080;2024-02-23T04:06:47;98266.22;;;8.21;100.00
16194;BME280;8204;53.582;10.080;2024-02-23T04:09:12;98281.44;;;8.11;100.00
16194;BME280;8204;53.582;10.080;2024-02-23T04:11:38;98283.47;;;8.15;100.00
16194;BME280;8204;53.582;10.080;2024-02-23T04:14:04;98292.91;;;8.16;100.00
16194;BME280;8204;53.582;10.080;2024-02-23T04:16:31;98296.88;;;8.12;100.00
16194;BME280;8204;53.582;10.080;2024-02-23T04:18:57;98309.94;;;8.12;100.00
16194;BME280;8204;53.582;10.080;2024-02-23T04:21:22;98320.78;;;8.03;100.00
16194;BME280;8204;53.582;10.080;2024-02-23T04:23:48;98324.16;;;8.03;100.00
16194;BME280;8204;53.582;10.080;2024-02-23T04:26:14;98318.75;;;8.11;100.00
16194;BME280;8204;53.582;10.080;2024-02-23T04:28:40;98322.59;;;8.15;100.00
16194;BME280;8204;53.582;10.080;2024-02-23T04:31:08;98344.06;;;8.17;100.00
16194;BME280;8204;53.582;10.080;2024-02-23T04:33:35;98344.44;;;8.08;100.00
16194;BME280;8204;53.582;10.080;2024-02-23T04:36:03;98344.63;;;8.00;100.00
16194;BME280;8204;53.582;10.080;2024-02-23T04:38:29;98367.50;;;8.04;100.00
16194;BME280;8204;53.582;10.080;2024-02-23T04:40:55;98360.53;;;8.18;100.00
16194;BME280;8204;53.582;10.080;2024-02-23T04:43:22;98369.91;;;7.99;100.00
16194;BME280;8204;53.582;10.080;2024-02-23T04:45:48;98373.31;;;8.06;100.00
16194;BME280;8204;53.582;10.080;2024-02-23T04:48:13;98394.16;;;8.00;100.00
16194;BME280;8204;53.582;10.080;2024-02-23T04:50:39;98370.13;;;7.98;100.00
16194;BME280;8204;53.582;10.080;2024-02-23T04:53:04;98374.50;;;7.97;100.00
16194;BME280;8204;53.582;10.080;2024-02-23T04:55:30;98376.94;;;8.05;100.00
16194;BME280;8204;53.582;10.080;2024-02-23T04:57:56;98374.94;;;7.95;100.00
16194;BME280;8204;53.582;10.080;2024-02-23T05:00:21;98379.13;;;7.95;100.00
16194;BME280;8204;53.582;10.080;2024-02-23T05:02:47;98393.97;;;7.95;100.00
16194;BME280;8204;53.582;10.080;2024-02-23T05:05:12;98393.38;;;8.06;100.00
16194;BME280;8204;53.582;10.080;2024-02-23T05:07:37;98388.75;;;8.08;100.00
16194;BME280;8204;53.582;10.080;2024-02-23T05:10:03;98403.84;;;8.25;100.00
16194;BME280;8204;53.582;10.080;2024-02-23T05:12:29;98394.22;;;8.26;100.00
16194;BME280;8204;53.582;10.080;2024-02-23T05:14:54;98399.25;;;8.14;100.00
16194;BME280;8204;53.582;10.080;2024-02-23T05:17:20;98412.25;;;8.08;100.00
16194;BME280;8204;53.582;10.080;2024-02-23T05:19:45;98418.66;;;8.12;100.00
16194;BME280;8204;53.582;10.080;2024-02-23T05:22:12;98422.06;;;7.99;100.00
16194;BME280;8204;53.582;10.080;2024-02-23T05:24:37;98423.06;;;7.98;100.00
16194;BME280;8204;53.582;10.080;2024-02-23T05:27:03;98426.88;;;7.96;100.00
16194;BME280;8204;53.582;10.080;2024-02-23T05:29:28;98450.09;;;7.78;100.00
16194;BME280;8204;53.582;10.080;2024-02-23T05:31:54;98446.28;;;7.81;100.00
16194;BME280;8204;53.582;10.080;2024-02-23T05:34:20;98455.47;;;7.77;100.00
16194;BME280;8204;53.582;10.080;2024-02-23T05:36:46;98447.47;;;7.72;100.00
16194;BME280;8204;53.582;10.080;2024-02-23T05:39:12;98439.47;;;7.86;100.00
16194;BME280;8204;53.582;10.080;2024-02-23T05:41:38;98450.72;;;7.87;100.00
16194;BME280;8204;53.582;10.080;2024-02-23T05:44:04;98465.53;;;7.86;100.00
16194;BME280;8204;53.582;10.080;2024-02-23T05:46:35;98498.06;;;7.90;100.00
16194;BME280;8204;53.582;10.080;2024-02-23T05:49:01;98484.84;;;7.98;100.00
16194;BME280;8204;53.582;10.080;2024-02-23T05:51:28;98505.22;;;7.75;100.00
16194;BME280;8204;53.582;10.080;2024-02-23T05:53:58;98491.97;;;7.70;100.00
16194;BME280;8204;53.582;10.080;2024-02-23T05:56:23;98493.81;;;7.83;100.00
16194;BME280;8204;53.582;10.080;2024-02-23T05:58:50;98501.88;;;7.88;100.00
16194;BME280;8204;53.582;10.080;2024-02-23T06:01:16;98508.91;;;7.94;100.00
16194;BME280;8204;53.582;10.080;2024-02-23T06:03:41;98514.94;;;8.00;100.00
16194;BME280;8204;53.582;10.080;2024-02-23T06:06:07;98508.94;;;8.06;100.00
16194;BME280;8204;53.582;10.080;2024-02-23T06:08:36;98539.00;;;7.96;100.00
16194;BME280;8204;53.582;10.080;2024-02-23T06:11:02;98537.78;;;7.92;100.00
16194;BME280;8204;53.582;10.080;2024-02-23T06:13:31;98545.03;;;8.03;100.00
16194;BME280;8204;53.582;10.080;2024-02-23T06:15:57;98586.72;;;7.90;100.00
16194;BME280;8204;53.582;10.080;2024-02-23T06:18:22;98555.84;;;7.94;100.00
16194;BME280;8204;53.582;10.080;2024-02-23T06:20:49;98559.84;;;8.02;100.00
16194;BME280;8204;53.582;10.080;2024-02-23T06:23:16;98579.13;;;8.01;100.00
16194;BME280;8204;53.582;10.080;2024-02-23T06:25:41;98582.34;;;8.03;100.00
16194;BME280;8204;53.582;10.080;2024-02-23T06:28:07;98596.72;;;7.93;100.00
16194;BME280;8204;53.582;10.080;2024-02-23T06:30:32;98589.72;;;7.94;100.00
16194;BME280;8204;53.582;10.080;2024-02-23T06:32:58;98593.16;;;8.00;100.00
16194;BME280;8204;53.582;10.080;2024-02-23T06:35:23;98602.38;;;7.96;100.00
16194;BME280;8204;53.582;10.080;2024-02-23T06:37:48;98610.59;;;7.94;100.00
16194;BME280;8204;53.582;10.080;2024-02-23T06:40:14;98624.34;;;7.81;100.00
16194;BME280;8204;53.582;10.080;2024-02-23T06:42:39;98616.25;;;7.70;100.00
16194;BME280;8204;53.582;10.080;2024-02-23T06:45:05;98620.13;;;7.80;100.00
16194;BME280;8204;53.582;10.080;2024-02-23T06:47:30;98628.38;;;7.84;100.00
16194;BME280;8204;53.582;10.080;2024-02-23T06:49:56;98633.22;;;7.87;100.00
16194;BME280;8204;53.582;10.080;2024-02-23T06:52:22;98640.00;;;7.81;100.00
16194;BME280;8204;53.582;10.080;2024-02-23T06:54:48;98643.00;;;7.78;100.00
16194;BME280;8204;53.582;10.080;2024-02-23T06:57:14;98641.53;;;7.69;100.00
16194;BME280;8204;53.582;10.080;2024-02-23T06:59:39;98645.59;;;7.78;100.00
16194;BME280;8204;53.582;10.080;2024-02-23T07:02:04;98653.66;;;7.83;100.00
16194;BME280;8204;53.582;10.080;2024-02-23T07:04:30;98674.03;;;7.73;100.00
16194;BME280;8204;53.582;10.080;2024-02-23T07:06:55;98647.38;;;7.78;100.00
16194;BME280;8204;53.582;10.080;2024-02-23T07:09:21;98666.47;;;7.78;100.00
16194;BME280;8204;53.582;10.080;2024-02-23T07:11:47;98658.63;;;7.78;100.00
16194;BME280;8204;53.582;10.080;2024-02-23T07:14:12;98665.69;;;7.84;100.00
16194;BME280;8204;53.582;10.080;2024-02-23T07:16:39;98677.53;;;7.87;100.00
16194;BME280;8204;53.582;10.080;2024-02-23T07:19:06;98669.16;;;7.97;100.00
16194;BME280;8204;53.582;10.080;2024-02-23T07:21:32;98671.44;;;8.07;100.00
16194;BME280;8204;53.582;10.080;2024-02-23T07:23:59;98673.91;;;8.15;100.00
16194;BME280;8204;53.582;10.080;2024-02-23T07:26:24;98676.31;;;8.16;100.00
16194;BME280;8204;53.582;10.080;2024-02-23T07:28:50;98682.38;;;8.23;100.00
16194;BME280;8204;53.582;10.080;2024-02-23T07:31:15;98680.38;;;8.25;100.00
16194;BME280;8204;53.582;10.080;2024-02-23T07:33:42;98694.66;;;8.29;100.00
16194;BME280;8204;53.582;10.080;2024-02-23T07:36:13;98691.81;;;8.24;100.00
16194;BME280;8204;53.582;10.080;2024-02-23T07:38:39;98696.66;;;8.27;100.00
16194;BME280;8204;53.582;10.080;2024-02-23T07:41:04;98699.28;;;8.27;100.00
16194;BME280;8204;53.582;10.080;2024-02-23T07:43:31;98687.81;;;8.28;100.00
16194;BME280;8204;53.582;10.080;2024-02-23T07:45:57;98709.31;;;8.30;100.00
16194;BME280;8204;53.582;10.080;2024-02-23T07:48:23;98712.69;;;8.24;100.00
16194;BME280;8204;53.582;10.080;2024-02-23T07:50:49;98712.25;;;8.21;100.00
16194;BME280;8204;53.582;10.080;2024-02-23T07:53:17;98721.28;;;8.18;100.00
16194;BME280;8204;53.582;10.080;2024-02-23T07:55:42;98707.31;;;8.32;100.00
16194;BME280;8204;53.582;10.080;2024-02-23T07:58:08;98720.78;;;8.36;100.00
16194;BME280;8204;53.582;10.080;2024-02-23T08:00:33;98717.75;;;8.32;100.00
16194;BME280;8204;53.582;10.080;2024-02-23T08:03:03;98731.75;;;8.25;100.00
16194;BME280;8204;53.582;10.080;2024-02-23T08:05:28;98727.78;;;8.29;100.00
16194;BME280;8204;53.582;10.080;2024-02-23T08:07:53;98743.19;;;8.24;100.00
16194;BME280;8204;53.582;10.080;2024-02-23T08:10:19;98746.22;;;8.27;100.00
16194;BME280;8204;53.582;10.080;2024-02-23T08:12:44;98756.03;;;8.25;100.00
16194;BME280;8204;53.582;10.080;2024-02-23T08:15:09;98785.19;;;8.35;100.00
16194;BME280;8204;53.582;10.080;2024-02-23T08:17:35;98755.13;;;8.46;100.00
16194;BME280;8204;53.582;10.080;2024-02-23T08:20:01;98762.94;;;8.39;100.00
16194;BME280;8204;53.582;10.080;2024-02-23T08:22:26;98796.91;;;8.46;100.00
16194;BME280;8204;53.582;10.080;2024-02-23T08:24:52;98781.88;;;8.54;100.00
16194;BME280;8204;53.582;10.080;2024-02-23T08:27:17;98778.69;;;8.59;100.00
16194;BME280;8204;53.582;10.080;2024-02-23T08:29:42;98783.13;;;8.58;100.00
16194;BME280;8204;53.582;10.080;2024-02-23T08:32:09;98811.63;;;8.60;100.00
16194;BME280;8204;53.582;10.080;2024-02-23T08:34:34;98794.19;;;8.60;100.00
16194;BME280;8204;53.582;10.080;2024-02-23T08:37:00;98813.47;;;8.66;100.00
16194;BME280;8204;53.582;10.080;2024-02-23T08:39:26;98810.28;;;8.64;100.00
16194;BME280;8204;53.582;10.080;2024-02-23T08:41:52;98815.09;;;8.67;100.00
16194;BME280;8204;53.582;10.080;2024-02-23T08:44:18;98844.09;;;8.78;100.00
16194;BME280;8204;53.582;10.080;2024-02-23T08:46:44;98835.25;;;8.79;100.00
16194;BME280;8204;53.582;10.080;2024-02-23T08:49:09;98845.03;;;8.70;100.00
16194;BME280;8204;53.582;10.080;2024-02-23T08:51:35;98812.69;;;8.71;100.00
16194;BME280;8204;53.582;10.080;2024-02-23T08:54:00;98829.34;;;8.70;100.00
16194;BME280;8204;53.582;10.080;2024-02-23T08:56:30;98834.00;;;8.75;100.00
16194;BME280;8204;53.582;10.080;2024-02-23T08:58:58;98843.69;;;8.81;100.00
16194;BME280;8204;53.582;10.080;2024-02-23T09:01:23;98840.91;;;8.89;100.00
16194;BME280;8204;53.582;10.080;2024-02-23T09:03:50;98860.25;;;9.01;100.00
16194;BME280;8204;53.582;10.080;2024-02-23T09:06:15;98855.03;;;9.01;100.00
16194;BME280;8204;53.582;10.080;2024-02-23T09:08:40;98861.44;;;8.92;100.00
16194;BME280;8204;53.582;10.080;2024-02-23T09:11:06;98884.38;;;8.96;100.00
16194;BME280;8204;53.582;10.080;2024-02-23T09:13:32;98874.25;;;8.87;100.00
16194;BME280;8204;53.582;10.080;2024-02-23T09:15:58;98866.25;;;8.95;100.00
16194;BME280;8204;53.582;10.080;2024-02-23T09:18:24;98861.50;;;9.11;100.00
16194;BME280;8204;53.582;10.080;2024-02-23T09:20:50;98875.97;;;9.14;100.00
16194;BME280;8204;53.582;10.080;2024-02-23T09:23:15;98882.00;;;9.08;100.00
16194;BME280;8204;53.582;10.080;2024-02-23T09:25:41;98883.66;;;9.22;100.00
16194;BME280;8204;53.582;10.080;2024-02-23T09:28:07;98884.28;;;9.30;100.00
16194;BME280;8204;53.582;10.080;2024-02-23T09:30:32;98902.06;;;9.41;100.00
16194;BME280;8204;53.582;10.080;2024-02-23T09:32:58;98910.06;;;9.40;100.00
16194;BME280;8204;53.582;10.080;2024-02-23T09:35:23;98914.50;;;9.39;100.00
16194;BME280;8204;53.582;10.080;2024-02-23T09:37:49;98922.34;;;9.39;100.00
16194;BME280;8204;53.582;10.080;2024-02-23T09:40:15;98920.72;;;9.32;100.00
16194;BME280;8204;53.582;10.080;2024-02-23T09:42:41;98932.88;;;9.18;100.00
16194;BME280;8204;53.582;10.080;2024-02-23T09:45:08;98917.91;;;9.33;100.00
16194;BME280;8204;53.582;10.080;2024-02-23T09:47:37;98927.56;;;9.45;100.00
16194;BME280;8204;53.582;10.080;2024-02-23T09:50:03;98937.88;;;9.53;100.00
16194;BME280;8204;53.582;10.080;2024-02-23T09:52:29;98943.31;;;9.52;100.00
16194;BME280;8204;53.582;10.080;2024-02-23T09:54:54;98946.34;;;9.55;100.00
16194;BME280;8204;53.582;10.080;2024-02-23T09:57:20;98958.25;;;9.64;100.00
16194;BME280;8204;53.582;10.080;2024-02-23T09:59:48;98951.81;;;9.73;100.00
16194;BME280;8204;53.582;10.080;2024-02-23T10:02:17;98964.31;;;9.78;100.00
16194;BME280;8204;53.582;10.080;2024-02-23T10:04:43;98968.28;;;9.61;100.00
16194;BME280;8204;53.582;10.080;2024-02-23T10:07:10;98973.94;;;9.71;100.00
16194;BME280;8204;53.582;10.080;2024-02-23T10:09:36;98976.81;;;9.89;100.00
16194;BME280;8204;53.582;10.080;2024-02-23T10:12:02;98983.25;;;9.86;100.00
16194;BME280;8204;53.582;10.080;2024-02-23T10:14:28;98998.16;;;9.86;100.00
16194;BME280;8204;53.582;10.080;2024-02-23T10:16:53;98992.09;;;9.79;100.00
16194;BME280;8204;53.582;10.080;2024-02-23T10:19:21;99015.41;;;9.74;100.00
16194;BME280;8204;53.582;10.080;2024-02-23T10:21:47;99015.06;;;9.83;100.00
16194;BME280;8204;53.582;10.080;2024-02-23T10:24:15;99006.97;;;9.78;100.00
16194;BME280;8204;53.582;10.080;2024-02-23T10:26:41;99010.25;;;9.87;100.00
16194;BME280;8204;53.582;10.080;2024-02-23T10:29:07;98999.41;;;9.96;100.00
16194;BME280;8204;53.582;10.080;2024-02-23T10:31:35;99029.63;;;10.05;100.00
16194;BME280;8204;53.582;10.080;2024-02-23T10:34:07;99045.66;;;9.96;100.00
16194;BME280;8204;53.582;10.080;2024-02-23T10:36:41;99023.19;;;10.01;100.00
16194;BME280;8204;53.582;10.080;2024-02-23T10:39:11;99031.28;;;10.13;100.00
16194;BME280;8204;53.582;10.080;2024-02-23T10:41:39;99030.09;;;10.15;100.00
16194;BME280;8204;53.582;10.080;2024-02-23T10:44:11;99038.97;;;10.27;100.00
16194;BME280;8204;53.582;10.080;2024-02-23T10:46:37;99046.22;;;10.38;100.00
16194;BME280;8204;53.582;10.080;2024-02-23T10:49:03;99033.75;;;10.40;100.00
16194;BME280;8204;53.582;10.080;2024-02-23T10:51:31;99034.97;;;10.57;100.00
16194;BME280;8204;53.582;10.080;2024-02-23T10:53:57;99035.81;;;10.70;100.00
16194;BME280;8204;53.582;10.080;2024-02-23T10:56:22;99056.16;;;10.68;100.00
16194;BME280;8204;53.582;10.080;2024-02-23T10:58:49;99046.88;;;10.66;100.00
16194;BME280;8204;53.582;10.080;2024-02-23T11:01:16;99054.13;;;10.64;100.00
16194;BME280;8204;53.582;10.080;2024-02-23T11:03:47;99054.34;;;10.56;100.00
16194;BME280;8204;53.582;10.080;2024-02-23T11:06:16;99090.22;;;10.62;100.00
16194;BME280;8204;53.582;10.080;2024-02-23T11:08:47;99080.47;;;10.36;100.00
16194;BME280;8204;53.582;10.080;2024-02-23T11:11:16;99081.06;;;10.32;100.00
16194;BME280;8204;53.582;10.080;2024-02-23T11:13:44;99060.91;;;10.26;100.00
16194;BME280;8204;53.582;10.080;2024-02-23T11:16:10;99062.75;;;10.38;100.00
16194;BME280;8204;53.582;10.080;2024-02-23T11:18:38;99067.03;;;10.52;100.00
16194;BME280;8204;53.582;10.080;2024-02-23T11:21:05;99074.69;;;10.60;100.00
16194;BME280;8204;53.582;10.080;2024-02-23T11:23:45;99071.69;;;10.63;100.00
16194;BME280;8204;53.582;10.080;2024-02-23T11:26:11;99078.28;;;10.40;100.00
16194;BME280;8204;53.582;10.080;2024-02-23T11:28:52;99077.28;;;10.41;100.00
16194;BME280;8204;53.582;10.080;2024-02-23T11:31:22;99070.38;;;10.33;100.00
16194;BME280;8204;53.582;10.080;2024-02-23T11:33:55;99073.66;;;10.42;100.00
16194;BME280;8204;53.582;10.080;2024-02-23T11:36:29;99075.84;;;10.45;100.00
16194;BME280;8204;53.582;10.080;2024-02-23T11:38:57;99060.97;;;10.45;100.00
16194;BME280;8204;53.582;10.080;2024-02-23T11:41:24;99052.50;;;10.50;100.00
16194;BME280;8204;53.582;10.080;2024-02-23T11:43:51;99050.53;;;10.58;100.00
16194;BME280;8204;53.582;10.080;2024-02-23T11:46:17;99044.88;;;10.55;100.00
16194;BME280;8204;53.582;10.080;2024-02-23T11:48:44;99060.38;;;10.63;100.00
16194;BME280;8204;53.582;10.080;2024-02-23T11:51:13;99044.28;;;10.72;100.00
16194;BME280;8204;53.582;10.080;2024-02-23T11:53:40;99037.84;;;10.88;100.00
16194;BME280;8204;53.582;10.080;2024-02-23T11:56:05;99052.75;;;10.93;100.00
16194;BME280;8204;53.582;10.080;2024-02-23T11:58:33;99052.34;;;10.90;100.00
16194;BME280;8204;53.582;10.080;2024-02-23T12:00:59;99042.09;;;10.89;100.00
16194;BME280;8204;53.582;10.080;2024-02-23T12:03:31;99036.44;;;10.91;100.00
16194;BME280;8204;53.582;10.080;2024-02-23T12:06:00;99045.88;;;10.86;100.00
16194;BME280;8204;53.582;10.080;2024-02-23T12:08:27;99057.19;;;10.87;100.00
16194;BME280;8204;53.582;10.080;2024-02-23T12:10:54;99045.47;;;10.83;100.00
16194;BME280;8204;53.582;10.080;2024-02-23T12:13:20;99047.09;;;10.84;100.00
16194;BME280;8204;53.582;10.080;2024-02-23T12:15:46;99066.84;;;10.67;100.00
16194;BME280;8204;53.582;10.080;2024-02-23T12:18:11;99058.56;;;10.57;100.00
16194;BME280;8204;53.582;10.080;2024-02-23T12:20:37;99062.63;;;10.59;100.00
16194;BME280;8204;53.582;10.080;2024-02-23T12:23:02;99064.78;;;10.49;100.00
16194;BME280;8204;53.582;10.080;2024-02-23T12:25:28;99062.59;;;10.53;100.00
16194;BME280;8204;53.582;10.080;2024-02-23T12:27:54;99065.22;;;10.53;100.00
16194;BME280;8204;53.582;10.080;2024-02-23T12:30:21;99066.63;;;10.49;100.00
16194;BME280;8204;53.582;10.080;2024-02-23T12:32:46;99060.75;;;10.53;100.00
16194;BME280;8204;53.582;10.080;2024-02-23T12:35:12;99061.41;;;10.68;100.00
16194;BME280;8204;53.582;10.080;2024-02-23T12:37:37;99059.59;;;10.69;100.00
16194;BME280;8204;53.582;10.080;2024-02-23T12:40:03;99058.19;;;10.79;100.00
16194;BME280;8204;53.582;10.080;2024-02-23T12:42:28;99063.81;;;10.70;100.00
16194;BME280;8204;53.582;10.080;2024-02-23T12:44:54;99059.59;;;10.69;100.00
16194;BME280;8204;53.582;10.080;2024-02-23T12:47:20;99075.72;;;10.79;100.00
16194;BME280;8204;53.582;10.080;2024-02-23T12:49:46;99061.41;;;10.62;100.00
16194;BME280;8204;53.582;10.080;2024-02-23T12:52:12;99061.00;;;10.58;100.00